createdAt,value
2022-08-06T00:00:18.385Z,22.21
2022-08-06T00:02:54.047Z,21.77
2022-08-06T00:05:27.501Z,22.17
2022-08-06T00:07:58.539Z,22.14
2022-08-06T00:10:29.819Z,22.16
2022-08-06T00:13:00.271Z,22.11
2022-08-06T00:16:10.537Z,22.08
2022-08-06T00:18:16.780Z,22.11
2022-08-06T00:20:45.324Z,22.05
2022-08-06T00:23:16.807Z,22.01
2022-08-06T00:25:52.423Z,21.96
2022-08-06T00:28:31.568Z,21.88
2022-08-06T00:31:01.133Z,21.81
2022-08-06T00:33:44.068Z,21.88
2022-08-06T00:36:19.084Z,21.85
2022-08-06T00:38:52.470Z,21.81
2022-08-06T00:41:20.084Z,21.86
2022-08-06T00:43:50.108Z,21.93
2022-08-06T00:46:17.161Z,21.96
2022-08-06T00:48:53.917Z,21.95
2022-08-06T00:51:22.428Z,21.98
2022-08-06T00:53:49.754Z,21.89
2022-08-06T00:56:26.822Z,21.99
2022-08-06T00:59:03.391Z,21.95
2022-08-06T01:01:32.986Z,21.90
2022-08-06T01:04:17.731Z,21.89
2022-08-06T01:06:55.144Z,21.82
2022-08-06T01:09:25.293Z,21.89
2022-08-06T01:11:52.278Z,21.86
2022-08-06T01:14:38.156Z,21.83
2022-08-06T01:17:56.152Z,21.85
2022-08-06T01:21:57.883Z,21.87
2022-08-06T01:23:58.532Z,21.93
2022-08-06T01:26:55.503Z,21.91
2022-08-06T01:29:34.956Z,21.88
2022-08-06T01:32:15.674Z,21.84
2022-08-06T01:35:04.689Z,21.80
2022-08-06T01:37:59.374Z,21.76
2022-08-06T01:40:32.981Z,21.75
2022-08-06T01:43:03.199Z,21.84
2022-08-06T01:45:55.471Z,21.83
2022-08-06T01:48:28.563Z,21.92
2022-08-06T01:51:01.953Z,21.85
2022-08-06T01:54:02.697Z,21.88
2022-08-06T01:56:30.926Z,21.86
2022-08-06T01:59:00.030Z,21.88
2022-08-06T02:01:28.368Z,21.83
2022-08-06T02:04:18.763Z,21.86
2022-08-06T02:06:49.700Z,21.94
2022-08-06T02:09:22.696Z,21.98
2022-08-06T02:12:10.729Z,21.99
2022-08-06T02:14:45.836Z,22.01
2022-08-06T02:17:18.225Z,21.97
2022-08-06T02:20:18.704Z,21.93
2022-08-06T02:22:56.852Z,21.88
2022-08-06T02:25:30.806Z,21.86
2022-08-06T02:28:01.399Z,21.79
2022-08-06T02:30:37.082Z,21.81
2022-08-06T02:33:11.208Z,21.83
2022-08-06T02:36:20.439Z,21.81
2022-08-06T02:38:58.400Z,21.81
2022-08-06T02:41:53.778Z,21.75
2022-08-06T02:44:28.514Z,21.88
2022-08-06T02:47:17.100Z,21.89
2022-08-06T02:49:56.844Z,21.96
2022-08-06T02:52:42.033Z,22.00
2022-08-06T02:55:34.435Z,22.09
2022-08-06T02:58:38.675Z,22.05
2022-08-06T03:01:10.409Z,22.01
2022-08-06T03:03:40.756Z,21.91
2022-08-06T03:06:26.759Z,21.95
2022-08-06T03:08:59.126Z,21.88
2022-08-06T03:11:31.201Z,21.73
2022-08-06T03:14:02.090Z,21.94
2022-08-06T03:16:36.035Z,21.87
2022-08-06T03:19:53.989Z,21.85
2022-08-06T03:21:56.936Z,21.76
2022-08-06T03:24:26.688Z,21.77
2022-08-06T03:26:58.815Z,21.99
2022-08-06T03:29:27.980Z,21.97
2022-08-06T03:31:58.419Z,21.90
2022-08-06T03:34:27.095Z,21.84
2022-08-06T03:36:57.122Z,21.85
2022-08-06T03:39:25.629Z,21.73
2022-08-06T03:42:07.201Z,21.72
2022-08-06T03:44:36.602Z,21.83
2022-08-06T03:47:08.448Z,21.77
2022-08-06T03:49:41.765Z,21.78
2022-08-06T03:52:14.602Z,21.70
2022-08-06T03:54:48.024Z,21.86
2022-08-06T03:57:22.028Z,21.80
2022-08-06T04:00:02.395Z,21.92
2022-08-06T04:02:45.976Z,21.96
2022-08-06T04:05:21.252Z,21.98
2022-08-06T04:07:56.523Z,21.91
2022-08-06T04:10:34.662Z,21.99
2022-08-06T04:13:08.158Z,22.02
2022-08-06T04:15:55.834Z,22.08
2022-08-06T04:18:26.939Z,22.19
2022-08-06T04:20:59.530Z,22.16
2022-08-06T04:23:45.483Z,22.35
2022-08-06T04:26:15.564Z,22.41
2022-08-06T04:28:44.828Z,22.42
2022-08-06T04:31:13.151Z,22.45
2022-08-06T04:33:47.152Z,22.42
2022-08-06T04:36:25.415Z,22.55
2022-08-06T04:38:54.158Z,22.57
2022-08-06T04:41:24.792Z,22.77
2022-08-06T04:43:55.398Z,22.72
2022-08-06T04:46:22.851Z,22.75
2022-08-06T04:48:56.727Z,22.90
2022-08-06T04:52:36.504Z,22.97
2022-08-06T04:54:27.709Z,23.26
2022-08-06T04:56:56.904Z,23.35
2022-08-06T04:59:25.552Z,23.49
2022-08-06T05:02:01.034Z,23.61
2022-08-06T05:04:32.611Z,23.70
2022-08-06T05:07:10.612Z,23.56
2022-08-06T05:09:43.397Z,23.72
2022-08-06T05:12:14.666Z,23.54
2022-08-06T05:14:55.905Z,23.48
2022-08-06T05:17:34.918Z,23.89
2022-08-06T05:20:26.155Z,24.08
2022-08-06T05:23:01.287Z,24.18
2022-08-06T05:25:35.995Z,24.24
2022-08-06T05:28:10.925Z,24.36
2022-08-06T05:30:47.170Z,24.72
2022-08-06T05:33:32.235Z,24.52
2022-08-06T05:36:07.616Z,25.06
2022-08-06T05:38:40.945Z,25.28
2022-08-06T05:41:25.915Z,25.49
2022-08-06T05:44:00.320Z,25.82
2022-08-06T05:46:41.637Z,25.60
2022-08-06T05:49:58.196Z,25.63
2022-08-06T05:52:13.896Z,25.41
2022-08-06T05:54:55.575Z,25.98
2022-08-06T05:57:33.546Z,26.12
2022-08-06T06:00:41.905Z,26.36
2022-08-06T06:03:02.560Z,26.91
2022-08-06T06:06:06.551Z,27.29
2022-08-06T06:08:29.750Z,27.40
2022-08-06T06:11:10.501Z,27.89
2022-08-06T06:13:58.746Z,28.42
2022-08-06T06:16:34.329Z,28.68
2022-08-06T06:19:10.731Z,28.67
2022-08-06T06:22:05.387Z,28.99
2022-08-06T06:24:32.668Z,29.47
2022-08-06T06:27:35.953Z,29.80
2022-08-06T06:30:12.085Z,30.24
2022-08-06T06:33:04.065Z,30.50
2022-08-06T06:35:36.954Z,30.75
2022-08-06T06:38:26.236Z,30.16
2022-08-06T06:41:19.593Z,30.61
2022-08-06T06:44:01.664Z,30.25
2022-08-06T06:46:44.933Z,30.83
2022-08-06T06:49:59.031Z,29.99
2022-08-06T06:52:32.277Z,30.18
2022-08-06T06:55:15.523Z,30.76
2022-08-06T06:57:52.597Z,31.01
2022-08-06T07:00:43.337Z,30.79
2022-08-06T07:03:09.557Z,30.73
2022-08-06T07:06:02.958Z,31.19
2022-08-06T07:08:30.204Z,30.98
2022-08-06T07:11:00.509Z,31.44
2022-08-06T07:13:47.791Z,31.85
2022-08-06T07:16:35.954Z,31.94
2022-08-06T07:19:10.862Z,31.84
2022-08-06T07:21:42.443Z,31.29
2022-08-06T07:24:36.892Z,30.85
2022-08-06T07:27:04.029Z,31.29
2022-08-06T07:29:59.241Z,31.80
2022-08-06T07:32:31.294Z,31.83
2022-08-06T07:34:59.323Z,31.87
2022-08-06T07:37:38.434Z,32.07
2022-08-06T07:40:10.293Z,31.71
2022-08-06T07:42:39.958Z,32.20
2022-08-06T07:45:11.188Z,32.34
2022-08-06T07:47:55.054Z,32.35
2022-08-06T07:50:25.397Z,32.16
2022-08-06T07:52:56.347Z,32.61
2022-08-06T07:55:37.091Z,32.48
2022-08-06T07:58:08.356Z,32.68
2022-08-06T08:00:38.868Z,32.07
2022-08-06T08:03:57.639Z,31.65
2022-08-06T08:06:28.457Z,31.90
2022-08-06T08:09:07.725Z,32.18
2022-08-06T08:12:25.774Z,32.22
2022-08-06T08:14:29.713Z,33.16
2022-08-06T08:16:56.608Z,33.38
2022-08-06T08:19:34.484Z,33.47
2022-08-06T08:22:15.807Z,33.43
2022-08-06T08:24:51.307Z,33.52
2022-08-06T08:27:23.774Z,33.20
2022-08-06T08:29:56.886Z,33.02
2022-08-06T08:32:24.556Z,33.06
2022-08-06T08:34:52.822Z,32.97
2022-08-06T08:37:20.700Z,33.14
2022-08-06T08:39:48.073Z,33.58
2022-08-06T08:42:31.716Z,33.66
2022-08-06T08:45:03.016Z,33.65
2022-08-06T08:47:47.187Z,33.25
2022-08-06T08:50:21.756Z,32.72
2022-08-06T08:52:52.032Z,32.18
2022-08-06T08:57:08.195Z,32.29
2022-08-06T08:58:39.843Z,32.66
2022-08-06T09:01:00.684Z,32.93
2022-08-06T09:03:28.000Z,32.11
2022-08-06T09:05:57.009Z,32.60
2022-08-06T09:09:01.237Z,32.18
2022-08-06T09:12:03.185Z,31.91
2022-08-06T09:14:08.764Z,32.88
2022-08-06T09:16:38.038Z,33.13
2022-08-06T09:19:11.971Z,32.76
2022-08-06T09:21:38.965Z,33.02
2022-08-06T09:24:10.855Z,33.49
2022-08-06T09:26:54.503Z,33.14
2022-08-06T09:29:31.774Z,32.65
2022-08-06T09:32:02.091Z,33.27
2022-08-06T09:34:50.761Z,33.02
2022-08-06T09:37:30.247Z,33.91
2022-08-06T09:40:18.395Z,34.24
2022-08-06T09:42:51.754Z,34.53
2022-08-06T09:45:42.130Z,34.36
2022-08-06T09:48:17.297Z,34.15
2022-08-06T09:50:47.530Z,34.41
2022-08-06T09:53:18.832Z,33.97
2022-08-06T09:55:49.222Z,33.26
2022-08-06T09:58:27.952Z,32.87
2022-08-06T10:00:54.800Z,32.83
2022-08-06T10:04:04.640Z,33.55
2022-08-06T10:06:14.595Z,34.19
2022-08-06T10:08:46.127Z,34.26
2022-08-06T10:11:41.555Z,33.89
2022-08-06T10:14:31.409Z,35.05
2022-08-06T10:17:11.039Z,34.76
2022-08-06T10:19:52.419Z,34.48
2022-08-06T10:22:22.004Z,34.70
2022-08-06T10:24:57.366Z,34.29
2022-08-06T10:27:36.339Z,34.61
2022-08-06T10:30:10.274Z,34.76
2022-08-06T10:33:03.073Z,34.97
2022-08-06T10:35:31.891Z,34.68
2022-08-06T10:38:14.314Z,34.76
2022-08-06T10:40:44.660Z,34.59
2022-08-06T10:43:34.301Z,34.86
2022-08-06T10:46:06.548Z,34.98
2022-08-06T10:50:20.383Z,35.29
2022-08-06T10:51:56.713Z,35.64
2022-08-06T10:54:13.397Z,34.59
2022-08-06T10:56:47.750Z,34.18
2022-08-06T10:59:19.380Z,34.56
2022-08-06T11:02:12.268Z,34.83
2022-08-06T11:04:53.637Z,35.41
2022-08-06T11:08:14.346Z,35.00
2022-08-06T11:11:19.772Z,33.56
2022-08-06T11:14:03.559Z,33.26
2022-08-06T11:16:34.524Z,33.73
2022-08-06T11:19:09.672Z,34.51
2022-08-06T11:21:59.043Z,33.75
2022-08-06T11:24:25.458Z,33.73
2022-08-06T11:27:01.204Z,33.78
2022-08-06T11:29:55.248Z,34.03
2022-08-06T11:32:47.027Z,33.70
2022-08-06T11:35:42.873Z,33.24
2022-08-06T11:38:59.276Z,32.84
2022-08-06T11:41:55.041Z,32.86
2022-08-06T11:44:30.427Z,33.15
2022-08-06T11:47:31.108Z,33.68
2022-08-06T11:50:09.015Z,34.91
2022-08-06T11:52:41.548Z,35.44
2022-08-06T11:55:22.528Z,35.27
2022-08-06T11:58:19.362Z,35.10
2022-08-06T12:01:03.634Z,34.98
2022-08-06T12:03:48.106Z,35.85
2022-08-06T12:06:27.186Z,35.59
2022-08-06T12:09:21.132Z,34.76
2022-08-06T12:11:51.070Z,34.33
2022-08-06T12:14:49.091Z,33.89
2022-08-06T12:17:18.019Z,33.83
2022-08-06T12:20:01.820Z,33.28
2022-08-06T12:22:32.694Z,33.19
2022-08-06T12:25:10.780Z,33.21
2022-08-06T12:27:49.725Z,33.32
2022-08-06T12:30:37.143Z,33.37
2022-08-06T12:33:11.809Z,33.44
2022-08-06T12:35:57.894Z,33.79
2022-08-06T12:38:31.068Z,34.47
2022-08-06T12:41:09.543Z,35.01
2022-08-06T12:43:46.288Z,34.72
2022-08-06T12:46:25.006Z,34.34
2022-08-06T12:48:56.997Z,34.08
2022-08-06T12:51:27.732Z,33.57
2022-08-06T12:54:00.418Z,33.21
2022-08-06T12:56:32.710Z,33.21
2022-08-06T12:59:05.945Z,33.24
2022-08-06T13:02:07.526Z,33.93
2022-08-06T13:04:30.154Z,34.90
2022-08-06T13:07:00.167Z,35.62
2022-08-06T13:09:34.891Z,35.73
2022-08-06T13:12:29.506Z,34.98
2022-08-06T13:15:22.867Z,35.16
2022-08-06T13:18:40.975Z,35.67
2022-08-06T13:21:06.354Z,34.05
2022-08-06T13:23:43.754Z,33.41
2022-08-06T13:26:23.679Z,32.74
2022-08-06T13:30:31.380Z,32.71
2022-08-06T13:32:28.240Z,32.82
2022-08-06T13:35:00.049Z,32.62
2022-08-06T13:37:57.588Z,32.78
2022-08-06T13:40:51.841Z,32.54
2022-08-06T13:43:54.821Z,33.21
2022-08-06T13:46:27.878Z,34.09
2022-08-06T13:48:58.459Z,34.57
2022-08-06T13:51:28.628Z,34.68
2022-08-06T13:54:04.169Z,33.43
2022-08-06T13:56:41.826Z,33.70
2022-08-06T13:59:10.931Z,33.76
2022-08-06T14:01:45.652Z,34.49
2022-08-06T14:04:23.048Z,34.08
2022-08-06T14:06:53.706Z,33.61
2022-08-06T14:09:25.015Z,33.94
2022-08-06T14:11:58.703Z,33.35
2022-08-06T14:14:27.507Z,32.86
2022-08-06T14:16:56.396Z,33.09
2022-08-06T14:20:10.106Z,32.89
2022-08-06T14:22:17.024Z,32.39
2022-08-06T14:24:52.782Z,32.24
2022-08-06T14:27:20.612Z,31.58
2022-08-06T14:30:26.366Z,31.33
2022-08-06T14:32:38.931Z,31.20
2022-08-06T14:35:08.049Z,31.40
2022-08-06T14:37:50.032Z,31.43
2022-08-06T14:41:01.732Z,31.07
2022-08-06T14:43:55.395Z,30.96
2022-08-06T14:46:30.323Z,31.25
2022-08-06T14:49:05.507Z,31.32
2022-08-06T14:52:20.784Z,31.08
2022-08-06T14:54:31.308Z,30.85
2022-08-06T14:57:16.301Z,31.00
2022-08-06T14:59:49.225Z,31.13
2022-08-06T15:02:26.933Z,30.92
2022-08-06T15:04:55.626Z,30.70
2022-08-06T15:07:34.345Z,30.76
2022-08-06T15:10:27.579Z,30.72
2022-08-06T15:13:01.214Z,30.84
2022-08-06T15:15:36.481Z,30.79
2022-08-06T15:18:21.250Z,30.64
2022-08-06T15:21:00.487Z,30.51
2022-08-06T15:23:31.038Z,30.51
2022-08-06T15:26:42.200Z,30.43
2022-08-06T15:29:04.805Z,30.42
2022-08-06T15:31:38.493Z,30.39
2022-08-06T15:34:07.047Z,30.52
2022-08-06T15:36:36.011Z,30.38
2022-08-06T15:39:09.433Z,29.94
2022-08-06T15:41:42.879Z,29.80
2022-08-06T15:44:10.570Z,29.99
2022-08-06T15:46:41.592Z,29.88
2022-08-06T15:49:11.904Z,29.87
2022-08-06T15:51:38.884Z,29.73
2022-08-06T15:54:05.821Z,29.87
2022-08-06T15:56:51.356Z,29.86
2022-08-06T15:59:20.295Z,29.78
2022-08-06T16:01:52.062Z,29.78
2022-08-06T16:04:29.356Z,29.68
2022-08-06T16:06:59.785Z,29.53
2022-08-06T16:09:27.835Z,29.55
2022-08-06T16:11:57.537Z,29.63
2022-08-06T16:14:33.729Z,29.47
2022-08-06T16:17:06.565Z,29.30
2022-08-06T16:19:49.548Z,29.42
2022-08-06T16:22:19.117Z,29.09
2022-08-06T16:24:46.321Z,28.96
2022-08-06T16:27:14.826Z,29.04
2022-08-06T16:30:00.135Z,28.62
2022-08-06T16:32:27.150Z,28.48
2022-08-06T16:34:59.998Z,28.21
2022-08-06T16:37:32.636Z,28.26
2022-08-06T16:40:01.560Z,28.22
2022-08-06T16:42:32.125Z,28.15
2022-08-06T16:45:02.555Z,28.20
2022-08-06T16:48:18.736Z,28.18
2022-08-06T16:54:07.608Z,28.06
2022-08-06T16:55:52.996Z,28.00
2022-08-06T16:58:35.075Z,27.89
2022-08-06T17:02:14.230Z,27.86
2022-08-06T17:03:58.960Z,27.79
2022-08-06T17:06:31.160Z,27.65
2022-08-06T17:09:00.030Z,27.71
2022-08-06T17:11:46.242Z,27.65
2022-08-06T17:14:17.213Z,27.42
2022-08-06T17:16:47.611Z,27.29
2022-08-06T17:22:01.367Z,27.23
2022-08-06T17:24:36.778Z,27.34
2022-08-06T17:27:10.318Z,27.23
2022-08-06T17:29:46.819Z,27.31
2022-08-06T17:32:29.983Z,27.19
2022-08-06T17:35:06.536Z,27.26
2022-08-06T17:37:44.487Z,27.08
2022-08-06T17:40:31.873Z,26.97
2022-08-06T17:43:12.776Z,26.82
2022-08-06T17:45:52.551Z,26.84
2022-08-06T17:48:31.037Z,26.71
2022-08-06T17:50:59.294Z,26.63
2022-08-06T17:53:53.823Z,26.60
2022-08-06T17:56:29.134Z,26.58
2022-08-06T17:59:16.953Z,26.55
2022-08-06T18:01:50.654Z,26.47
2022-08-06T18:04:22.508Z,26.48
2022-08-06T18:06:58.205Z,26.36
2022-08-06T18:10:11.642Z,26.36
2022-08-06T18:12:13.184Z,26.64
2022-08-06T18:14:40.932Z,26.27
2022-08-06T18:17:17.068Z,26.27
2022-08-06T18:19:46.063Z,26.42
2022-08-06T18:22:22.839Z,26.10
2022-08-06T18:24:54.207Z,25.87
2022-08-06T18:27:53.355Z,25.96
2022-08-06T18:30:30.346Z,25.94
2022-08-06T18:33:00.566Z,25.83
2022-08-06T18:35:33.731Z,25.79
2022-08-06T18:38:18.506Z,25.77
2022-08-06T18:40:57.133Z,25.67
2022-08-06T18:43:54.381Z,25.72
2022-08-06T18:46:16.961Z,25.73
2022-08-06T18:49:02.518Z,25.85
2022-08-06T18:51:47.327Z,25.71
2022-08-06T18:54:23.097Z,25.56
2022-08-06T18:56:56.348Z,25.45
2022-08-06T18:59:29.031Z,25.53
2022-08-06T19:01:59.008Z,25.50
2022-08-06T19:04:29.006Z,25.40
2022-08-06T19:07:02.941Z,25.44
2022-08-06T19:09:32.277Z,25.54
2022-08-06T19:12:12.483Z,25.53
2022-08-06T19:14:48.761Z,25.54
2022-08-06T19:17:22.741Z,25.62
2022-08-06T19:20:19.978Z,25.58
2022-08-06T19:22:53.138Z,25.69
2022-08-06T19:25:20.604Z,25.59
2022-08-06T19:28:30.193Z,25.62
2022-08-06T19:30:45.209Z,25.68
2022-08-06T19:33:15.967Z,25.55
2022-08-06T19:36:05.836Z,25.39
2022-08-06T19:38:33.551Z,25.40
2022-08-06T19:41:01.628Z,25.50
2022-08-06T19:44:25.762Z,25.45
2022-08-06T19:46:30.824Z,25.42
2022-08-06T19:49:05.522Z,25.40
2022-08-06T19:52:03.417Z,25.37
2022-08-06T19:54:26.090Z,25.31
2022-08-06T19:57:03.266Z,25.42
2022-08-06T20:00:52.361Z,25.38
2022-08-06T20:02:26.285Z,25.38
2022-08-06T20:04:55.721Z,25.26
2022-08-06T20:07:25.685Z,25.26
2022-08-06T20:10:00.379Z,25.15
2022-08-06T20:12:32.155Z,25.03
2022-08-06T20:14:59.515Z,25.45
2022-08-06T20:17:29.965Z,25.21
2022-08-06T20:20:15.618Z,25.08
2022-08-06T20:22:43.309Z,25.04
2022-08-06T20:25:18.427Z,24.96
2022-08-06T20:29:07.597Z,24.89
2022-08-06T20:30:34.886Z,24.83
2022-08-06T20:33:02.171Z,24.85
2022-08-06T20:35:37.851Z,24.75
2022-08-06T20:38:07.196Z,24.73
2022-08-06T20:41:26.227Z,24.88
2022-08-06T20:44:05.190Z,24.86
2022-08-06T20:46:09.921Z,24.78
2022-08-06T20:48:38.704Z,24.75
2022-08-06T20:51:06.048Z,24.94
2022-08-06T20:53:37.481Z,24.77
2022-08-06T20:56:05.212Z,24.75
2022-08-06T20:58:33.378Z,24.76
2022-08-06T21:01:03.236Z,24.73
2022-08-06T21:05:10.651Z,24.69
2022-08-06T21:06:22.841Z,24.60
2022-08-06T21:08:55.648Z,24.57
2022-08-06T21:11:23.408Z,24.54
2022-08-06T21:14:04.177Z,24.56
2022-08-06T21:16:34.666Z,24.54
2022-08-06T21:19:03.400Z,24.59
2022-08-06T21:21:37.017Z,24.65
2022-08-06T21:24:04.985Z,24.65
2022-08-06T21:26:35.297Z,24.67
2022-08-06T21:29:41.612Z,24.66
2022-08-06T21:31:57.160Z,24.78
2022-08-06T21:34:25.602Z,24.69
2022-08-06T21:36:55.883Z,24.56
2022-08-06T21:39:23.915Z,24.48
2022-08-06T21:42:11.764Z,24.46
2022-08-06T21:44:38.935Z,24.46
2022-08-06T21:47:07.452Z,24.54
2022-08-06T21:49:59.505Z,24.57
2022-08-06T21:52:25.745Z,24.66
2022-08-06T21:54:57.734Z,24.53
2022-08-06T21:57:25.312Z,24.52
2022-08-06T21:59:53.285Z,24.45
2022-08-06T22:02:26.612Z,24.56
2022-08-06T22:05:00.066Z,24.57
2022-08-06T22:08:04.603Z,24.58
2022-08-06T22:10:28.884Z,24.50
2022-08-06T22:13:12.537Z,24.44
2022-08-06T22:15:45.951Z,24.43
2022-08-06T22:18:17.105Z,24.35
2022-08-06T22:20:48.196Z,24.34
2022-08-06T22:23:17.826Z,24.34
2022-08-06T22:25:45.214Z,24.35
2022-08-06T22:28:23.283Z,24.27
2022-08-06T22:31:00.371Z,24.25
2022-08-06T22:33:27.070Z,24.15
2022-08-06T22:35:57.375Z,24.08
2022-08-06T22:38:28.036Z,24.14
2022-08-06T22:40:59.477Z,24.14
2022-08-06T22:43:51.617Z,24.07
2022-08-06T22:46:13.422Z,23.94
2022-08-06T22:48:40.730Z,23.75
2022-08-06T22:51:19.330Z,23.64
2022-08-06T22:54:26.228Z,23.68
2022-08-06T22:56:42.175Z,23.65
2022-08-06T23:00:06.367Z,23.61
2022-08-06T23:02:16.219Z,23.56
2022-08-06T23:04:46.086Z,23.61
2022-08-06T23:07:13.968Z,23.65
2022-08-06T23:09:51.016Z,23.93
2022-08-06T23:12:25.379Z,23.97
2022-08-06T23:15:13.401Z,23.94
2022-08-06T23:17:56.547Z,23.73
2022-08-06T23:20:32.619Z,23.68
2022-08-06T23:23:01.576Z,23.68
2022-08-06T23:26:02.458Z,23.63
2022-08-06T23:28:16.943Z,23.71
2022-08-06T23:30:44.833Z,23.62
2022-08-06T23:33:11.573Z,23.47
2022-08-06T23:35:38.525Z,23.43
2022-08-06T23:38:34.212Z,23.37
2022-08-06T23:40:55.973Z,23.42
2022-08-06T23:43:25.802Z,23.16
2022-08-06T23:45:58.140Z,23.20
2022-08-06T23:48:27.949Z,23.09
2022-08-06T23:50:54.886Z,22.95
2022-08-06T23:54:06.359Z,22.95
2022-08-06T23:56:14.368Z,22.92
2022-08-06T23:58:47.124Z,22.89
